Time;durP1;ratioP1;P1;durP2;ratioP2;P2;SDS_P1;SDS_P2;PMS_P1;PMS_P2;Temp;Humidity;BMP_temperature;BMP_pressure;BME280_temperature;BME280_humidity;BME280_pressure;Samples;Min_cycle;Max_cycle;Signal;HPM_P1;HPM_P2
2022/05/18 00:00:05;;;;;;;10.20;3.22;;;;;;;;;;5030745;28;20403;-72
2022/05/18 00:02:31;;;;;;;5.78;2.90;;;;;;;;;;5044257;28;20124;-72
2022/05/18 00:04:57;;;;;;;11.85;3.78;;;;;;;;;;5049175;28;20029;-72
2022/05/18 00:07:23;;;;;;;8.30;3.47;;;;;;;;;;5046394;28;20026;-71
2022/05/18 00:09:51;;;;;;;7.38;2.80;;;;;;;;;;5018410;28;20033;-72
2022/05/18 00:12:17;;;;;;;7.50;3.58;;;;;;;;;;5050377;28;20090;-72
2022/05/18 00:14:43;;;;;;;8.52;2.80;;;;;;;;;;5052180;28;20057;-72
2022/05/18 00:17:10;;;;;;;5.07;3.13;;;;;;;;;;5048142;28;20063;-72
2022/05/18 00:19:37;;;;;;;6.72;3.38;;;;;;;;;;5054217;28;20033;-72
2022/05/18 00:22:04;;;;;;;7.82;3.47;;;;;;;;;;5051174;28;20025;-72
2022/05/18 00:24:31;;;;;;;6.72;3.10;;;;;;;;;;5051962;28;20049;-72
2022/05/18 00:26:57;;;;;;;6.88;3.20;;;;;;;;;;5049768;28;20099;-72
2022/05/18 00:29:23;;;;;;;5.95;2.90;;;;;;;;;;5054838;28;20041;-72
2022/05/18 00:31:50;;;;;;;5.22;2.95;;;;;;;;;;5052039;28;20150;-72
2022/05/18 00:34:16;;;;;;;6.50;3.30;;;;;;;;;;5036788;28;20442;-71
2022/05/18 00:36:42;;;;;;;10.82;3.90;;;;;;;;;;5027797;28;20021;-72
2022/05/18 00:39:09;;;;;;;5.80;3.47;;;;;;;;;;5048122;28;20029;-72
2022/05/18 00:41:37;;;;;;;5.88;3.38;;;;;;;;;;5052675;28;20495;-72
2022/05/18 00:44:04;;;;;;;6.60;2.85;;;;;;;;;;5051844;28;20082;-72
2022/05/18 00:46:30;;;;;;;6.00;3.40;;;;;;;;;;5066214;28;20107;-72
2022/05/18 00:48:56;;;;;;;8.13;3.45;;;;;;;;;;5048089;28;20037;-72
2022/05/18 00:51:28;;;;;;;7.47;3.47;;;;;;;;;;5044374;28;20086;-72
2022/05/18 00:53:56;;;;;;;7.95;3.33;;;;;;;;;;5045233;28;20139;-72
2022/05/18 00:56:26;;;;;;;7.32;4.03;;;;;;;;;;5052167;28;20029;-72
2022/05/18 00:58:56;;;;;;;7.15;3.58;;;;;;;;;;5051165;28;20052;-72
2022/05/18 01:01:23;;;;;;;7.40;3.40;;;;;;;;;;5063649;28;20041;-72
2022/05/18 01:03:51;;;;;;;8.55;3.97;;;;;;;;;;5061050;28;20086;-72
2022/05/18 01:06:23;;;;;;;11.20;5.00;;;;;;;;;;5051672;28;20032;-72
2022/05/18 01:08:59;;;;;;;10.30;3.90;;;;;;;;;;5048507;28;20025;-72
2022/05/18 01:11:25;;;;;;;10.30;3.70;;;;;;;;;;5049704;28;20032;-72
2022/05/18 01:13:51;;;;;;;8.55;3.50;;;;;;;;;;5052445;28;20041;-72
2022/05/18 01:16:17;;;;;;;9.38;3.47;;;;;;;;;;5044666;28;20372;-72
2022/05/18 01:18:44;;;;;;;6.15;3.30;;;;;;;;;;5032784;28;20520;-72
2022/05/18 01:21:10;;;;;;;10.20;3.85;;;;;;;;;;5049704;28;20044;-72
2022/05/18 01:23:38;;;;;;;7.25;3.33;;;;;;;;;;5048476;28;20059;-72
2022/05/18 01:26:14;;;;;;;6.55;3.47;;;;;;;;;;5052478;28;20029;-72
2022/05/18 01:28:43;;;;;;;9.27;4.00;;;;;;;;;;5051706;28;20561;-72
2022/05/18 01:31:09;;;;;;;7.93;4.20;;;;;;;;;;5052978;28;20496;-72
2022/05/18 01:33:36;;;;;;;9.63;4.03;;;;;;;;;;5049082;28;20037;-72
2022/05/18 01:36:02;;;;;;;6.82;3.72;;;;;;;;;;5053289;28;20063;-72
2022/05/18 01:38:28;;;;;;;7.75;3.85;;;;;;;;;;5048210;28;20041;-72
2022/05/18 01:40:54;;;;;;;8.70;3.97;;;;;;;;;;5048521;28;20065;-72
2022/05/18 01:43:22;;;;;;;7.38;4.13;;;;;;;;;;5048052;28;20067;-72
2022/05/18 01:45:50;;;;;;;12.07;4.30;;;;;;;;;;5045639;28;20107;-72
2022/05/18 01:48:17;;;;;;;7.82;4.18;;;;;;;;;;5050576;28;20064;-72
2022/05/18 01:50:43;;;;;;;7.72;4.05;;;;;;;;;;5053705;28;20040;-72
2022/05/18 01:53:10;;;;;;;8.55;3.88;;;;;;;;;;5049252;28;20040;-72
2022/05/18 01:55:36;;;;;;;8.40;4.55;;;;;;;;;;5053172;28;20032;-71
2022/05/18 01:58:03;;;;;;;6.93;3.78;;;;;;;;;;5049244;28;20052;-71
2022/05/18 02:00:30;;;;;;;7.18;4.10;;;;;;;;;;5055855;28;20455;-72
2022/05/18 02:02:56;;;;;;;8.75;4.28;;;;;;;;;;5066838;28;20091;-72
2022/05/18 02:05:22;;;;;;;7.60;4.72;;;;;;;;;;5050130;28;20028;-72
2022/05/18 02:07:48;;;;;;;6.07;3.92;;;;;;;;;;5042360;28;20427;-72
2022/05/18 02:10:15;;;;;;;7.25;4.82;;;;;;;;;;5045707;28;20037;-72
2022/05/18 02:12:41;;;;;;;10.10;4.78;;;;;;;;;;5049903;28;20041;-72
2022/05/18 02:15:07;;;;;;;11.40;4.32;;;;;;;;;;5050366;28;20037;-72
2022/05/18 02:17:35;;;;;;;6.80;3.95;;;;;;;;;;5054934;28;20089;-72
2022/05/18 02:20:01;;;;;;;8.30;4.30;;;;;;;;;;5049179;28;20071;-72
2022/05/18 02:22:27;;;;;;;7.20;4.18;;;;;;;;;;5052304;28;20036;-72
2022/05/18 02:24:53;;;;;;;10.38;4.15;;;;;;;;;;5032889;28;20029;-72
2022/05/18 02:27:19;;;;;;;8.13;4.07;;;;;;;;;;5049886;28;20029;-72
2022/05/18 02:29:45;;;;;;;8.63;4.35;;;;;;;;;;5049656;28;20033;-72
2022/05/18 02:32:11;;;;;;;11.38;4.22;;;;;;;;;;5052020;28;20040;-71
2022/05/18 02:34:37;;;;;;;11.40;4.80;;;;;;;;;;5031876;28;20056;-72
2022/05/18 02:37:04;;;;;;;9.95;4.47;;;;;;;;;;5049836;28;20059;-72
2022/05/18 02:39:30;;;;;;;9.25;4.20;;;;;;;;;;5028621;28;20083;-72
2022/05/18 02:41:56;;;;;;;9.23;4.22;;;;;;;;;;5050201;28;20100;-72
2022/05/18 02:44:23;;;;;;;5.97;4.05;;;;;;;;;;5046235;28;20025;-72
2022/05/18 02:46:49;;;;;;;9.70;4.25;;;;;;;;;;5046995;28;20039;-72
2022/05/18 02:49:15;;;;;;;7.13;4.18;;;;;;;;;;5051838;28;20021;-72
2022/05/18 02:51:41;;;;;;;8.07;4.60;;;;;;;;;;5051764;28;20567;-72
2022/05/18 02:56:53;;;;;;;6.60;4.35;;;;;;;;;;5050326;28;20055;-72
2022/05/18 02:59:20;;;;;;;8.60;4.53;;;;;;;;;;5045175;28;20040;-72
2022/05/18 03:01:46;;;;;;;11.82;4.65;;;;;;;;;;5045385;28;20021;-73
2022/05/18 03:04:13;;;;;;;7.68;5.00;;;;;;;;;;5028605;28;20028;-71
2022/05/18 03:06:39;;;;;;;9.23;5.28;;;;;;;;;;5049813;28;20021;-72
2022/05/18 03:09:05;;;;;;;12.85;5.20;;;;;;;;;;5048679;28;20095;-72
2022/05/18 03:11:31;;;;;;;9.30;4.90;;;;;;;;;;5050287;28;20132;-73
2022/05/18 03:13:57;;;;;;;11.15;4.55;;;;;;;;;;5049736;28;20373;-72
2022/05/18 03:16:25;;;;;;;7.55;4.90;;;;;;;;;;5046572;28;20048;-72
2022/05/18 03:18:51;;;;;;;6.78;4.53;;;;;;;;;;5041184;28;23510;-72
2022/05/18 03:24:03;;;;;;;8.07;5.47;;;;;;;;;;5044776;28;20056;-72
2022/05/18 03:26:29;;;;;;;10.57;5.20;;;;;;;;;;5033192;28;20067;-72
2022/05/18 03:28:56;;;;;;;9.75;5.53;;;;;;;;;;5030111;28;20078;-73
2022/05/18 03:31:23;;;;;;;8.05;4.80;;;;;;;;;;5048158;28;20041;-72
2022/05/18 03:33:49;;;;;;;8.00;5.22;;;;;;;;;;5050058;28;20071;-72
2022/05/18 03:36:16;;;;;;;9.32;5.30;;;;;;;;;;5048983;28;20079;-72
2022/05/18 03:38:43;;;;;;;12.27;5.53;;;;;;;;;;5045740;28;20061;-71
2022/05/18 03:41:10;;;;;;;9.90;5.38;;;;;;;;;;5046233;28;20128;-71
2022/05/18 03:43:36;;;;;;;10.77;5.43;;;;;;;;;;5051240;28;20079;-71
2022/05/18 03:46:02;;;;;;;8.98;5.07;;;;;;;;;;5054582;28;20029;-71
2022/05/18 03:48:29;;;;;;;8.60;5.32;;;;;;;;;;5059391;28;20167;-72
2022/05/18 03:50:57;;;;;;;8.18;5.22;;;;;;;;;;5052384;28;20033;-72
2022/05/18 03:53:23;;;;;;;10.50;5.63;;;;;;;;;;5050493;28;20425;-72
2022/05/18 03:55:49;;;;;;;7.20;5.70;;;;;;;;;;5045808;28;20111;-72
2022/05/18 03:58:16;;;;;;;9.52;5.65;;;;;;;;;;5051842;28;20032;-71
2022/05/18 04:00:43;;;;;;;12.85;5.22;;;;;;;;;;5037153;28;20045;-72
2022/05/18 04:03:10;;;;;;;14.43;6.25;;;;;;;;;;5044648;28;20040;-72
2022/05/18 04:05:37;;;;;;;8.13;5.60;;;;;;;;;;5051738;28;20029;-72
2022/05/18 04:08:04;;;;;;;12.48;6.28;;;;;;;;;;5040746;28;20029;-72
2022/05/18 04:10:30;;;;;;;5.95;5.20;;;;;;;;;;5052051;28;20063;-72
2022/05/18 04:12:56;;;;;;;7.97;6.38;;;;;;;;;;5050099;28;20082;-72
2022/05/18 04:15:22;;;;;;;8.27;5.80;;;;;;;;;;5050617;28;20064;-72
2022/05/18 04:17:49;;;;;;;10.50;6.13;;;;;;;;;;5054042;28;20067;-72
2022/05/18 04:20:16;;;;;;;9.23;5.68;;;;;;;;;;5053609;28;20060;-72
2022/05/18 04:22:42;;;;;;;14.38;5.80;;;;;;;;;;5051299;28;20045;-72
2022/05/18 04:25:09;;;;;;;13.25;5.88;;;;;;;;;;5050260;28;20060;-72
2022/05/18 04:27:36;;;;;;;8.10;5.93;;;;;;;;;;5047079;28;20037;-72
2022/05/18 04:30:03;;;;;;;10.30;6.68;;;;;;;;;;5051570;28;20052;-72
2022/05/18 04:32:29;;;;;;;9.05;6.07;;;;;;;;;;5048892;28;20126;-72
2022/05/18 04:34:55;;;;;;;7.30;5.82;;;;;;;;;;5047805;28;20082;-72
2022/05/18 04:37:21;;;;;;;10.43;6.40;;;;;;;;;;5050370;28;20021;-72
2022/05/18 04:39:47;;;;;;;11.10;5.80;;;;;;;;;;5039165;28;20049;-71
2022/05/18 04:42:14;;;;;;;15.50;6.78;;;;;;;;;;5052572;28;20029;-72
2022/05/18 04:44:40;;;;;;;10.95;5.93;;;;;;;;;;5048630;28;20033;-72
2022/05/18 04:47:06;;;;;;;10.65;6.85;;;;;;;;;;5051990;28;20037;-71
2022/05/18 04:49:32;;;;;;;8.48;6.07;;;;;;;;;;5052859;28;20041;-72
2022/05/18 04:51:59;;;;;;;13.40;6.70;;;;;;;;;;5035074;28;20082;-72
2022/05/18 04:54:25;;;;;;;10.48;6.38;;;;;;;;;;5055116;28;20089;-72
2022/05/18 04:56:51;;;;;;;12.10;6.70;;;;;;;;;;5046433;28;20090;-72
2022/05/18 04:59:17;;;;;;;10.63;6.25;;;;;;;;;;5042034;28;20029;-72
2022/05/18 05:01:43;;;;;;;9.77;6.68;;;;;;;;;;5059789;28;20025;-72
2022/05/18 05:04:10;;;;;;;9.18;6.53;;;;;;;;;;5051431;28;20163;-72
2022/05/18 05:06:40;;;;;;;11.10;7.00;;;;;;;;;;5043724;28;20094;-72
2022/05/18 05:09:07;;;;;;;11.07;6.60;;;;;;;;;;5047552;28;20167;-72
2022/05/18 05:11:33;;;;;;;12.98;6.93;;;;;;;;;;5051497;28;20481;-72
2022/05/18 05:13:59;;;;;;;25.13;8.52;;;;;;;;;;5042131;28;20033;-73
2022/05/18 05:16:28;;;;;;;13.05;7.45;;;;;;;;;;5048243;28;20033;-72
2022/05/18 05:18:54;;;;;;;9.98;6.82;;;;;;;;;;5039259;28;20021;-73
2022/05/18 05:21:20;;;;;;;13.60;7.72;;;;;;;;;;5047599;28;20036;-73
2022/05/18 05:23:46;;;;;;;13.13;6.65;;;;;;;;;;5041686;28;20103;-73
2022/05/18 05:26:13;;;;;;;13.48;7.93;;;;;;;;;;5044202;28;20035;-76
2022/05/18 05:28:39;;;;;;;13.63;7.65;;;;;;;;;;5037402;28;20033;-76
2022/05/18 05:31:06;;;;;;;18.65;14.15;;;;;;;;;;5032140;28;20094;-76
2022/05/18 05:33:32;;;;;;;14.32;8.57;;;;;;;;;;5051839;28;20033;-73
2022/05/18 05:35:59;;;;;;;11.93;7.90;;;;;;;;;;5047741;28;20435;-73
2022/05/18 05:38:25;;;;;;;12.10;7.25;;;;;;;;;;5050790;28;20466;-73
2022/05/18 05:40:51;;;;;;;11.02;7.78;;;;;;;;;;5025666;28;20508;-74
2022/05/18 05:43:17;;;;;;;13.85;7.18;;;;;;;;;;5050222;28;20041;-74
2022/05/18 05:45:53;;;;;;;10.75;7.72;;;;;;;;;;5050072;28;20112;-74
2022/05/18 05:48:19;;;;;;;17.48;8.85;;;;;;;;;;5052755;28;20029;-74
2022/05/18 05:50:46;;;;;;;13.35;8.18;;;;;;;;;;5051929;28;20025;-74
2022/05/18 05:53:12;;;;;;;15.93;7.90;;;;;;;;;;5052584;28;20037;-74
2022/05/18 05:55:38;;;;;;;16.27;9.13;;;;;;;;;;5046540;28;20478;-74
2022/05/18 05:58:04;;;;;;;13.45;7.60;;;;;;;;;;5030993;28;20421;-78
2022/05/18 06:00:30;;;;;;;20.40;10.43;;;;;;;;;;5031629;28;20047;-72
2022/05/18 06:02:56;;;;;;;47.60;29.60;;;;;;;;;;5030532;28;20033;-71
2022/05/18 06:05:22;;;;;;;22.05;9.68;;;;;;;;;;5047453;28;20200;-71
2022/05/18 06:07:49;;;;;;;11.63;8.20;;;;;;;;;;5045318;28;20029;-72
2022/05/18 06:10:15;;;;;;;14.40;8.27;;;;;;;;;;5047773;28;20028;-72
2022/05/18 06:12:41;;;;;;;15.68;9.13;;;;;;;;;;5038218;28;20038;-72
2022/05/18 06:15:08;;;;;;;10.35;7.55;;;;;;;;;;5032038;28;20033;-72
2022/05/18 06:17:34;;;;;;;12.85;8.10;;;;;;;;;;5032667;28;20043;-72
2022/05/18 06:20:00;;;;;;;16.85;8.65;;;;;;;;;;5042715;28;20076;-72
2022/05/18 06:22:26;;;;;;;10.60;7.85;;;;;;;;;;5046798;28;20038;-72
2022/05/18 06:24:52;;;;;;;13.02;8.75;;;;;;;;;;5028944;28;20032;-72
2022/05/18 06:27:19;;;;;;;14.05;7.80;;;;;;;;;;5029010;28;20032;-72
2022/05/18 06:29:47;;;;;;;17.73;8.18;;;;;;;;;;5041440;28;20025;-72
2022/05/18 06:32:14;;;;;;;13.25;7.80;;;;;;;;;;5041704;28;20025;-72
2022/05/18 06:34:40;;;;;;;20.42;8.70;;;;;;;;;;5041931;28;20066;-72
2022/05/18 06:37:06;;;;;;;14.77;8.13;;;;;;;;;;5038222;28;20053;-72
2022/05/18 06:39:32;;;;;;;18.38;8.98;;;;;;;;;;5022028;28;20029;-73
2022/05/18 06:41:59;;;;;;;19.08;9.35;;;;;;;;;;5043265;28;20021;-73
2022/05/18 06:44:25;;;;;;;12.30;7.43;;;;;;;;;;5046119;28;20079;-73
2022/05/18 06:46:51;;;;;;;13.07;7.85;;;;;;;;;;5044149;28;20034;-74
2022/05/18 06:49:18;;;;;;;10.68;7.97;;;;;;;;;;5021761;28;20588;-73
2022/05/18 06:51:46;;;;;;;11.43;7.20;;;;;;;;;;5050804;28;20526;-74
2022/05/18 06:54:12;;;;;;;13.25;6.65;;;;;;;;;;5045421;28;20116;-74
2022/05/18 06:56:41;;;;;;;12.07;6.97;;;;;;;;;;5048428;28;20143;-74
2022/05/18 06:59:08;;;;;;;13.38;7.28;;;;;;;;;;5046005;28;20176;-74
2022/05/18 07:01:34;;;;;;;120.22;67.05;;;;;;;;;;5058530;28;20033;-73
2022/05/18 07:04:00;;;;;;;73.22;44.95;;;;;;;;;;5042103;28;20026;-73
2022/05/18 07:06:28;;;;;;;12.07;6.88;;;;;;;;;;5048433;28;20734;-71
2022/05/18 07:08:58;;;;;;;12.43;6.05;;;;;;;;;;5049878;28;20457;-71
2022/05/18 07:11:24;;;;;;;11.63;5.57;;;;;;;;;;5046996;28;20115;-73
2022/05/18 07:13:54;;;;;;;8.45;5.80;;;;;;;;;;5043684;28;20056;-74
2022/05/18 07:16:24;;;;;;;9.32;6.10;;;;;;;;;;5047698;28;20033;-73
2022/05/18 07:18:51;;;;;;;9.73;6.07;;;;;;;;;;5029046;28;20032;-73
2022/05/18 07:21:18;;;;;;;8.00;5.15;;;;;;;;;;5037798;28;20045;-73
2022/05/18 07:23:44;;;;;;;9.75;5.78;;;;;;;;;;5034842;28;20045;-73
2022/05/18 07:26:11;;;;;;;14.25;5.90;;;;;;;;;;5045417;28;20394;-73
2022/05/18 07:28:39;;;;;;;12.00;5.90;;;;;;;;;;5050538;28;20432;-74
2022/05/18 07:31:05;;;;;;;14.48;7.57;;;;;;;;;;5048433;28;20489;-73
2022/05/18 07:33:31;;;;;;;11.60;7.07;;;;;;;;;;5043553;28;20064;-73
2022/05/18 07:35:57;;;;;;;8.60;6.30;;;;;;;;;;5043801;28;20029;-76
2022/05/18 07:38:25;;;;;;;10.77;6.10;;;;;;;;;;5045773;28;20065;-73
2022/05/18 07:40:51;;;;;;;10.68;6.50;;;;;;;;;;5046046;28;20111;-73
2022/05/18 07:43:18;;;;;;;9.73;5.95;;;;;;;;;;5047463;28;20060;-74
2022/05/18 07:45:45;;;;;;;11.25;5.75;;;;;;;;;;5054316;28;20029;-73
2022/05/18 07:48:11;;;;;;;10.38;5.38;;;;;;;;;;5048304;28;20048;-74
2022/05/18 07:50:37;;;;;;;11.82;5.60;;;;;;;;;;5049742;28;20063;-74
2022/05/18 07:53:03;;;;;;;8.35;5.78;;;;;;;;;;5046552;28;20037;-73
2022/05/18 07:55:29;;;;;;;11.68;5.80;;;;;;;;;;5047905;28;20116;-73
2022/05/18 07:57:55;;;;;;;12.60;5.60;;;;;;;;;;5041822;28;20040;-73
2022/05/18 08:00:23;;;;;;;10.27;5.60;;;;;;;;;;5037469;28;20056;-74
2022/05/18 08:02:49;;;;;;;15.32;7.22;;;;;;;;;;5027349;28;20025;-74
2022/05/18 08:05:15;;;;;;;12.95;6.53;;;;;;;;;;5047838;28;20554;-75
2022/05/18 08:07:45;;;;;;;11.73;7.00;;;;;;;;;;5047848;28;20396;-74
2022/05/18 08:15:42;;;;;;;13.65;6.13;;;;;;;;;;5039077;28;20493;-73
2022/05/18 08:18:09;;;;;;;9.88;7.63;;;;;;;;;;5013519;28;20522;-74
2022/05/18 08:20:38;;;;;;;12.73;6.35;;;;;;;;;;5045732;28;20059;-74
2022/05/18 08:23:04;;;;;;;13.15;6.47;;;;;;;;;;5045115;28;20041;-73
2022/05/18 08:25:30;;;;;;;12.63;6.90;;;;;;;;;;5027552;28;20025;-73
2022/05/18 08:27:56;;;;;;;11.02;6.50;;;;;;;;;;5035536;28;20040;-73
2022/05/18 08:30:22;;;;;;;14.20;6.63;;;;;;;;;;5050709;28;20033;-73
2022/05/18 08:32:50;;;;;;;12.25;7.53;;;;;;;;;;5043555;28;20037;-73
2022/05/18 08:35:16;;;;;;;11.02;7.30;;;;;;;;;;5034345;28;20535;-72
2022/05/18 08:37:45;;;;;;;11.10;6.68;;;;;;;;;;5049640;28;20506;-73
2022/05/18 08:40:17;;;;;;;10.65;7.10;;;;;;;;;;5052503;28;20062;-73
2022/05/18 08:42:43;;;;;;;13.15;7.07;;;;;;;;;;5040474;28;20116;-73
2022/05/18 08:45:10;;;;;;;12.93;7.97;;;;;;;;;;5039478;28;20061;-73
2022/05/18 08:47:44;;;;;;;11.43;7.07;;;;;;;;;;5029733;28;20060;-73
2022/05/18 08:50:13;;;;;;;15.18;8.25;;;;;;;;;;5045589;28;20104;-73
2022/05/18 08:52:53;;;;;;;16.80;8.30;;;;;;;;;;5046137;28;20025;-74
2022/05/18 08:55:31;;;;;;;16.05;7.93;;;;;;;;;;5042111;28;20094;-74
2022/05/18 08:57:59;;;;;;;10.82;7.63;;;;;;;;;;5045489;28;20040;-74
2022/05/18 09:00:34;;;;;;;13.10;7.88;;;;;;;;;;5044231;28;20107;-74
2022/05/18 09:03:17;;;;;;;12.23;7.97;;;;;;;;;;5043768;28;20075;-74
2022/05/18 09:05:47;;;;;;;11.18;7.97;;;;;;;;;;5047612;28;20025;-73
2022/05/18 09:08:15;;;;;;;68.15;49.97;;;;;;;;;;5050235;28;20025;-76
2022/05/18 09:10:45;;;;;;;15.23;8.70;;;;;;;;;;5032073;28;20029;-74
2022/05/18 09:13:11;;;;;;;12.57;8.75;;;;;;;;;;5047272;28;20040;-73
2022/05/18 09:15:43;;;;;;;14.32;7.72;;;;;;;;;;5048842;28;20032;-73
2022/05/18 09:18:17;;;;;;;16.20;8.00;;;;;;;;;;5033931;28;20056;-73
2022/05/18 09:20:53;;;;;;;14.15;8.35;;;;;;;;;;5042422;28;20033;-73
2022/05/18 09:23:22;;;;;;;10.80;8.07;;;;;;;;;;5049005;28;20370;-74
2022/05/18 09:26:06;;;;;;;10.85;7.25;;;;;;;;;;5047118;28;20021;-73
2022/05/18 09:28:32;;;;;;;15.15;7.70;;;;;;;;;;5046434;28;20033;-74
2022/05/18 09:30:58;;;;;;;16.85;8.15;;;;;;;;;;5057259;28;20032;-71
2022/05/18 09:33:29;;;;;;;17.05;8.25;;;;;;;;;;5044956;28;20364;-72
2022/05/18 09:35:55;;;;;;;12.93;8.43;;;;;;;;;;5044794;28;20048;-71
2022/05/18 09:38:30;;;;;;;18.73;8.70;;;;;;;;;;5048045;28;20612;-70
2022/05/18 09:40:56;;;;;;;12.35;8.27;;;;;;;;;;5037456;28;20037;-78
2022/05/18 09:43:33;;;;;;;13.90;8.65;;;;;;;;;;5029941;28;20029;-76
2022/05/18 09:45:59;;;;;;;18.80;8.35;;;;;;;;;;5050506;28;20037;-76
2022/05/18 09:48:34;;;;;;;11.73;7.80;;;;;;;;;;5047183;28;20465;-76
2022/05/18 09:51:02;;;;;;;13.82;8.38;;;;;;;;;;5051432;28;20067;-78
2022/05/18 09:53:29;;;;;;;12.75;8.13;;;;;;;;;;5046476;28;20064;-77
2022/05/18 09:55:55;;;;;;;14.43;9.23;;;;;;;;;;5049552;28;20033;-76
2022/05/18 09:58:29;;;;;;;11.95;8.45;;;;;;;;;;5046837;28;20086;-76
2022/05/18 10:09:37;;;;;;;11.27;8.23;;;;;;;;;;5044731;28;20052;-77
2022/05/18 10:12:13;;;;;;;12.65;7.13;;;;;;;;;;5043649;28;20017;-76
2022/05/18 10:14:39;;;;;;;17.58;7.70;;;;;;;;;;5044141;28;20028;-75
2022/05/18 10:17:08;;;;;;;12.23;7.38;;;;;;;;;;5049984;28;20036;-76
2022/05/18 10:19:54;;;;;;;12.82;7.40;;;;;;;;;;5039356;28;20104;-75
2022/05/18 10:22:29;;;;;;;12.90;7.85;;;;;;;;;;5041432;28;20047;-76
2022/05/18 10:25:04;;;;;;;9.30;6.63;;;;;;;;;;5044230;28;20132;-76
2022/05/18 10:27:32;;;;;;;13.23;7.28;;;;;;;;;;5041378;28;20423;-75
2022/05/18 10:30:08;;;;;;;9.15;6.70;;;;;;;;;;5045626;28;20073;-74
2022/05/18 10:32:35;;;;;;;8.02;6.68;;;;;;;;;;5023302;28;20037;-74
2022/05/18 10:35:01;;;;;;;9.43;6.57;;;;;;;;;;5042853;28;20061;-74
2022/05/18 10:37:34;;;;;;;7.85;6.63;;;;;;;;;;5049525;28;20032;-74
2022/05/18 10:40:03;;;;;;;7.93;6.25;;;;;;;;;;5048004;28;20041;-75
2022/05/18 10:42:42;;;;;;;11.68;7.13;;;;;;;;;;5041568;28;20035;-74
2022/05/18 10:45:22;;;;;;;12.63;7.13;;;;;;;;;;5042611;28;20036;-75
2022/05/18 10:47:50;;;;;;;14.68;6.10;;;;;;;;;;5051313;28;20032;-74
2022/05/18 10:50:24;;;;;;;8.77;6.45;;;;;;;;;;5023757;28;22897;-75
2022/05/18 10:52:51;;;;;;;14.70;7.65;;;;;;;;;;5039749;28;20029;-75
2022/05/18 10:55:19;;;;;;;10.27;6.40;;;;;;;;;;5046543;28;20071;-76
2022/05/18 10:57:58;;;;;;;12.13;7.43;;;;;;;;;;5044152;28;20489;-73
2022/05/18 11:00:27;;;;;;;9.57;5.78;;;;;;;;;;5046000;28;20051;-73
2022/05/18 11:02:55;;;;;;;10.35;6.22;;;;;;;;;;5044989;28;20044;-73
2022/05/18 11:05:26;;;;;;;9.90;6.40;;;;;;;;;;5040141;28;20033;-74
2022/05/18 11:07:52;;;;;;;12.88;7.10;;;;;;;;;;5024330;28;20473;-74
2022/05/18 11:10:18;;;;;;;11.80;7.18;;;;;;;;;;5036491;28;20504;-73
2022/05/18 11:12:51;;;;;;;9.98;7.30;;;;;;;;;;5024994;28;20124;-73
2022/05/18 11:15:29;;;;;;;17.75;7.60;;;;;;;;;;5049392;28;20390;-73
2022/05/18 11:18:04;;;;;;;9.52;7.20;;;;;;;;;;5049943;28;20052;-73
2022/05/18 11:20:49;;;;;;;14.38;7.70;;;;;;;;;;5048206;28;20036;-73
2022/05/18 11:23:27;;;;;;;12.68;7.68;;;;;;;;;;5048641;28;20134;-74
2022/05/18 11:25:56;;;;;;;10.88;6.82;;;;;;;;;;5050786;28;20033;-74
2022/05/18 11:28:25;;;;;;;13.68;7.85;;;;;;;;;;5050169;28;20048;-74
2022/05/18 11:31:03;;;;;;;9.70;7.45;;;;;;;;;;5051138;28;20041;-73
2022/05/18 11:33:38;;;;;;;11.27;7.10;;;;;;;;;;5040099;28;20392;-73
2022/05/18 11:36:04;;;;;;;12.18;8.27;;;;;;;;;;5048707;28;20131;-74
2022/05/18 11:38:38;;;;;;;13.60;8.93;;;;;;;;;;5049378;28;20055;-73
2022/05/18 11:41:19;;;;;;;11.60;9.50;;;;;;;;;;5043185;28;20043;-73
2022/05/18 11:44:04;;;;;;;19.63;9.50;;;;;;;;;;5046782;28;20119;-73
2022/05/18 11:46:30;;;;;;;18.25;10.10;;;;;;;;;;5059504;28;20020;-74
2022/05/18 11:48:56;;;;;;;17.20;11.68;;;;;;;;;;5041390;28;20056;-73
2022/05/18 11:51:48;;;;;;;12.95;10.07;;;;;;;;;;5049624;28;20538;-73
2022/05/18 11:54:33;;;;;;;19.30;10.57;;;;;;;;;;5046525;28;20116;-73
2022/05/18 11:57:14;;;;;;;15.13;10.10;;;;;;;;;;5031113;28;20496;-73
2022/05/18 12:00:00;;;;;;;14.85;8.93;;;;;;;;;;5038679;28;20381;-73
2022/05/18 12:02:45;;;;;;;11.48;8.10;;;;;;;;;;5054978;28;20018;-74
2022/05/18 12:05:29;;;;;;;18.05;8.07;;;;;;;;;;5052468;28;20033;-73
2022/05/18 12:07:57;;;;;;;13.70;7.88;;;;;;;;;;5039367;28;20528;-75
2022/05/18 12:10:26;;;;;;;16.75;8.55;;;;;;;;;;5033293;28;20079;-73
2022/05/18 12:12:56;;;;;;;11.63;7.10;;;;;;;;;;5042622;28;20087;-74
2022/05/18 12:15:31;;;;;;;10.48;6.75;;;;;;;;;;5042354;28;20072;-73
2022/05/18 12:18:02;;;;;;;11.52;6.60;;;;;;;;;;5044801;28;20021;-74
2022/05/18 12:20:28;;;;;;;;;;;;;;;;;;5045317;28;20033;-74
2022/05/18 12:22:57;;;;;;;11.35;5.53;;;;;;;;;;5040172;28;19944;-74
2022/05/18 12:25:25;;;;;;;11.95;5.80;;;;;;;;;;5040416;28;20037;-74
2022/05/18 12:27:52;;;;;;;11.32;5.55;;;;;;;;;;5045149;28;20029;-74
2022/05/18 12:30:20;;;;;;;13.68;7.07;;;;;;;;;;5053558;28;20033;-74
2022/05/18 12:32:47;;;;;;;9.20;6.38;;;;;;;;;;5050966;28;20021;-74
2022/05/18 12:35:19;;;;;;;10.93;6.05;;;;;;;;;;5047875;28;20036;-74
2022/05/18 12:37:51;;;;;;;11.32;5.72;;;;;;;;;;5045393;28;20037;-74
2022/05/18 12:40:20;;;;;;;13.57;6.50;;;;;;;;;;5039640;28;20064;-74
2022/05/18 12:42:50;;;;;;;13.73;7.82;;;;;;;;;;5046777;28;20025;-74
2022/05/18 12:45:37;;;;;;;18.03;8.17;;;;;;;;;;5041664;28;20040;-74
2022/05/18 12:48:06;;;;;;;13.88;8.45;;;;;;;;;;5044151;28;20100;-74
2022/05/18 12:50:36;;;;;;;11.73;7.75;;;;;;;;;;5048163;28;20029;-74
2022/05/18 12:53:04;;;;;;;13.80;8.00;;;;;;;;;;5048942;28;20476;-73
2022/05/18 12:55:39;;;;;;;14.93;9.13;;;;;;;;;;5045677;28;20041;-74
2022/05/18 12:58:12;;;;;;;19.17;10.95;;;;;;;;;;5049574;28;20140;-72
2022/05/18 13:01:10;;;;;;;17.33;12.00;;;;;;;;;;5042799;28;20178;-74
2022/05/18 13:03:44;;;;;;;21.00;12.80;;;29.70;90.00;;;;;;5012486;28;20036;-74
2022/05/18 13:06:13;;;;;;;16.67;11.52;;;;;;;;;;5045450;28;20028;-74
2022/05/18 13:08:39;;;;;;;19.85;12.38;;;;;;;;;;5042389;28;20035;-74
2022/05/18 13:11:11;;;;;;;20.65;14.02;;;;;;;;;;5046563;28;20025;-74
2022/05/18 13:13:55;;;;;;;18.05;14.15;;;;;;;;;;5049816;28;20443;-74
2022/05/18 13:16:39;;;;;;;21.67;13.93;;;29.90;87.70;;;;;;5043161;28;20039;-74
2022/05/18 13:19:18;;;;;;;20.20;13.18;;;;;;;;;;5043446;28;20112;-74
2022/05/18 13:22:11;;;;;;;25.50;14.32;;;29.30;89.40;;;;;;5043158;28;20169;-74
2022/05/18 13:24:49;;;;;;;22.77;14.63;;;29.30;90.50;;;;;;5041117;28;20045;-74
2022/05/18 13:27:20;;;;;;;26.15;14.27;;;29.30;91.50;;;;;;5048636;28;20060;-74
2022/05/18 13:29:51;;;;;;;24.80;13.98;;;;;;;;;;5030646;28;20053;-73
2022/05/18 13:32:19;;;;;;;22.20;12.82;;;29.40;91.90;;;;;;5048255;28;20029;-75
2022/05/18 13:34:57;;;;;;;19.88;12.50;;;29.50;91.20;;;;;;5043317;28;20104;-72
2022/05/18 13:37:23;;;;;;;21.70;14.35;;;;;;;;;;5048761;28;20025;-72
2022/05/18 13:39:50;;;;;;;22.42;14.40;;;;;;;;;;5046241;28;20469;-72
2022/05/18 13:42:21;;;;;;;19.63;13.00;;;;;;;;;;5045398;28;20036;-73
2022/05/18 13:44:51;;;;;;;21.88;13.10;;;;;;;;;;5050939;28;20029;-72
2022/05/18 13:47:31;;;;;;;19.30;13.95;;;;;;;;;;5048587;28;20029;-72
2022/05/18 13:50:05;;;;;;;21.42;13.82;;;28.00;93.90;;;;;;5049811;28;20063;-72
2022/05/18 13:52:34;;;;;;;19.10;13.00;;;;;;;;;;5046661;28;20041;-72
2022/05/18 13:55:04;;;;;;;19.50;12.50;;;;;;;;;;5048538;28;20028;-72
2022/05/18 13:57:40;;;;;;;19.95;13.13;;;;;;;;;;5048664;28;20037;-72
2022/05/18 14:00:27;;;;;;;31.70;14.10;;;;;;;;;;5045544;28;20087;-72
2022/05/18 14:02:57;;;;;;;23.00;12.80;;;;;;;;;;5041229;28;20366;-72
2022/05/18 14:05:23;;;;;;;26.48;11.45;;;;;;;;;;5047876;28;20420;-72
2022/05/18 14:07:51;;;;;;;22.10;13.38;;;;;;;;;;5026087;28;20125;-74
2022/05/18 14:10:25;;;;;;;18.30;12.65;;;28.20;94.10;;;;;;5040891;28;20068;-74
2022/05/18 14:12:56;;;;;;;18.02;11.57;;;28.20;94.10;;;;;;5041967;28;20063;-74
2022/05/18 14:15:22;;;;;;;20.23;12.57;;;;;;;;;;5044597;28;20387;-74
2022/05/18 14:17:49;;;;;;;23.08;11.80;;;;;;;;;;5048870;28;20140;-72
2022/05/18 14:20:35;;;;;;;17.02;10.75;;;27.70;96.20;;;;;;5041659;28;20041;-74
2022/05/18 14:23:03;;;;;;;19.77;12.02;;;;;;;;;;5044439;28;20034;-74
2022/05/18 14:25:34;;;;;;;24.77;12.90;;;;;;;;;;5030456;28;20060;-75
2022/05/18 14:28:01;;;;;;;21.20;11.32;;;;;;;;;;5041731;28;20039;-75
2022/05/18 14:30:33;;;;;;;19.55;11.95;;;;;;;;;;5021927;28;20064;-75
2022/05/18 14:33:01;;;;;;;19.38;11.30;;;;;;;;;;5037031;28;20034;-76
2022/05/18 14:35:36;;;;;;;19.98;11.82;;;;;;;;;;5039142;28;20121;-75
2022/05/18 14:38:04;;;;;;;21.30;11.45;;;;;;;;;;5039066;28;20029;-75
2022/05/18 14:40:33;;;;;;;22.77;12.40;;;;;;;;;;5037895;28;20041;-75
2022/05/18 14:42:59;;;;;;;17.67;10.82;;;;;;;;;;5038275;28;20041;-72
2022/05/18 14:45:33;;;;;;;18.77;11.18;;;;;;;;;;5044882;28;20056;-73
2022/05/18 14:47:59;;;;;;;19.05;10.70;;;;;;;;;;5041906;28;20043;-73
2022/05/18 14:50:29;;;;;;;20.10;10.57;;;;;;;;;;5036496;28;20092;-74
2022/05/18 14:52:56;;;;;;;17.58;9.50;;;;;;;;;;5041268;28;20102;-75
2022/05/18 14:55:28;;;;;;;18.73;9.75;;;;;;;;;;5041242;28;20108;-74
2022/05/18 14:57:57;;;;;;;19.30;8.77;;;26.70;96.40;;;;;;5042079;28;20031;-75